sensor_id;sensor_type;location;lat;lon;timestamp;temperature;humidity
42965;DHT22;28604;51.204;22.552;2022-12-29T00:01:29;3.20;87.30
42965;DHT22;28604;51.204;22.552;2022-12-29T00:03:55;3.20;86.60
42965;DHT22;28604;51.204;22.552;2022-12-29T00:06:21;3.20;87.10
42965;DHT22;28604;51.204;22.552;2022-12-29T00:08:47;3.20;87.00
42965;DHT22;28604;51.204;22.552;2022-12-29T00:11:15;3.20;87.10
42965;DHT22;28604;51.204;22.552;2022-12-29T00:13:41;3.20;86.90
42965;DHT22;28604;51.204;22.552;2022-12-29T00:16:27;3.10;87.10
42965;DHT22;28604;51.204;22.552;2022-12-29T00:18:53;3.10;87.30
42965;DHT22;28604;51.204;22.552;2022-12-29T00:21:20;3.10;87.00
42965;DHT22;28604;51.204;22.552;2022-12-29T00:24:04;3.10;87.00
42965;DHT22;28604;51.204;22.552;2022-12-29T00:26:53;3.10;87.40
42965;DHT22;28604;51.204;22.552;2022-12-29T00:29:39;3.10;87.50
42965;DHT22;28604;51.204;22.552;2022-12-29T00:32:23;3.10;87.60
42965;DHT22;28604;51.204;22.552;2022-12-29T00:35:09;3.10;87.70
42965;DHT22;28604;51.204;22.552;2022-12-29T00:37:40;3.10;87.80
42965;DHT22;28604;51.204;22.552;2022-12-29T00:40:26;3.10;87.60
42965;DHT22;28604;51.204;22.552;2022-12-29T00:43:11;3.10;87.60
42965;DHT22;28604;51.204;22.552;2022-12-29T00:45:55;3.10;88.00
42965;DHT22;28604;51.204;22.552;2022-12-29T00:48:21;3.10;87.40
42965;DHT22;28604;51.204;22.552;2022-12-29T00:51:06;3.10;87.80
42965;DHT22;28604;51.204;22.552;2022-12-29T00:53:32;3.10;87.40
42965;DHT22;28604;51.204;22.552;2022-12-29T00:55:58;3.10;87.80
42965;DHT22;28604;51.204;22.552;2022-12-29T00:58:28;3.10;87.50
42965;DHT22;28604;51.204;22.552;2022-12-29T01:01:04;3.10;87.80
42965;DHT22;28604;51.204;22.552;2022-12-29T01:03:32;3.10;87.80
42965;DHT22;28604;51.204;22.552;2022-12-29T01:05:59;3.00;87.40
42965;DHT22;28604;51.204;22.552;2022-12-29T01:08:26;3.00;87.50
42965;DHT22;28604;51.204;22.552;2022-12-29T01:14:15;3.00;87.90
42965;DHT22;28604;51.204;22.552;2022-12-29T01:16:41;2.90;88.00
42965;DHT22;28604;51.204;22.552;2022-12-29T01:19:07;2.90;87.90
42965;DHT22;28604;51.204;22.552;2022-12-29T01:21:33;2.90;88.00
42965;DHT22;28604;51.204;22.552;2022-12-29T01:23:59;2.90;87.60
42965;DHT22;28604;51.204;22.552;2022-12-29T01:26:25;2.80;88.00
42965;DHT22;28604;51.204;22.552;2022-12-29T01:28:51;2.90;88.20
42965;DHT22;28604;51.204;22.552;2022-12-29T01:31:17;2.80;88.20
42965;DHT22;28604;51.204;22.552;2022-12-29T01:33:45;2.80;87.90
42965;DHT22;28604;51.204;22.552;2022-12-29T01:36:12;2.90;88.00
42965;DHT22;28604;51.204;22.552;2022-12-29T01:38:38;2.80;88.20
42965;DHT22;28604;51.204;22.552;2022-12-29T01:41:05;2.80;87.70
42965;DHT22;28604;51.204;22.552;2022-12-29T01:46:30;2.80;88.10
42965;DHT22;28604;51.204;22.552;2022-12-29T01:51:28;2.80;88.00
42965;DHT22;28604;51.204;22.552;2022-12-29T01:53:55;2.80;88.40
42965;DHT22;28604;51.204;22.552;2022-12-29T01:56:23;2.80;88.20
42965;DHT22;28604;51.204;22.552;2022-12-29T01:58:54;2.80;88.40
42965;DHT22;28604;51.204;22.552;2022-12-29T02:01:21;2.80;88.10
42965;DHT22;28604;51.204;22.552;2022-12-29T02:03:47;2.80;88.10
42965;DHT22;28604;51.204;22.552;2022-12-29T02:06:18;2.80;88.20
42965;DHT22;28604;51.204;22.552;2022-12-29T02:08:47;2.80;88.00
42965;DHT22;28604;51.204;22.552;2022-12-29T02:11:13;2.80;88.10
42965;DHT22;28604;51.204;22.552;2022-12-29T02:13:39;2.70;88.10
42965;DHT22;28604;51.204;22.552;2022-12-29T02:29:09;2.60;88.20
42965;DHT22;28604;51.204;22.552;2022-12-29T02:37:02;2.70;88.20
42965;DHT22;28604;51.204;22.552;2022-12-29T02:39:40;2.70;88.00
42965;DHT22;28604;51.204;22.552;2022-12-29T03:15:28;2.60;88.40
42965;DHT22;28604;51.204;22.552;2022-12-29T03:18:18;2.60;88.40
42965;DHT22;28604;51.204;22.552;2022-12-29T03:20:49;2.60;88.60
42965;DHT22;28604;51.204;22.552;2022-12-29T03:23:18;2.60;88.50
42965;DHT22;28604;51.204;22.552;2022-12-29T03:25:46;2.60;88.50
42965;DHT22;28604;51.204;22.552;2022-12-29T03:28:14;2.60;88.50
42965;DHT22;28604;51.204;22.552;2022-12-29T03:30:45;2.60;88.30
42965;DHT22;28604;51.204;22.552;2022-12-29T03:33:15;2.60;88.30
42965;DHT22;28604;51.204;22.552;2022-12-29T03:35:42;2.70;88.10
42965;DHT22;28604;51.204;22.552;2022-12-29T03:38:12;2.70;88.00
42965;DHT22;28604;51.204;22.552;2022-12-29T03:40:40;2.70;88.30
42965;DHT22;28604;51.204;22.552;2022-12-29T03:43:08;2.70;88.10
42965;DHT22;28604;51.204;22.552;2022-12-29T03:45:36;2.70;88.30
42965;DHT22;28604;51.204;22.552;2022-12-29T03:48:02;2.70;88.30
42965;DHT22;28604;51.204;22.552;2022-12-29T03:50:30;2.70;88.50
42965;DHT22;28604;51.204;22.552;2022-12-29T03:52:56;2.70;87.90
42965;DHT22;28604;51.204;22.552;2022-12-29T03:55:22;2.70;88.10
42965;DHT22;28604;51.204;22.552;2022-12-29T03:57:48;2.70;88.20
42965;DHT22;28604;51.204;22.552;2022-12-29T04:00:20;2.70;88.10
42965;DHT22;28604;51.204;22.552;2022-12-29T04:02:48;2.70;88.00
42965;DHT22;28604;51.204;22.552;2022-12-29T04:05:19;2.70;88.30
42965;DHT22;28604;51.204;22.552;2022-12-29T04:07:46;2.70;88.00
42965;DHT22;28604;51.204;22.552;2022-12-29T04:10:13;2.70;88.10
42965;DHT22;28604;51.204;22.552;2022-12-29T04:12:39;2.70;88.10
42965;DHT22;28604;51.204;22.552;2022-12-29T04:15:07;2.70;88.30
42965;DHT22;28604;51.204;22.552;2022-12-29T04:17:33;2.70;88.10
42965;DHT22;28604;51.204;22.552;2022-12-29T04:19:59;2.80;87.90
42965;DHT22;28604;51.204;22.552;2022-12-29T04:22:44;2.70;87.90
42965;DHT22;28604;51.204;22.552;2022-12-29T04:25:10;2.70;88.00
42965;DHT22;28604;51.204;22.552;2022-12-29T04:27:36;2.70;88.30
42965;DHT22;28604;51.204;22.552;2022-12-29T04:30:33;2.70;88.30
42965;DHT22;28604;51.204;22.552;2022-12-29T04:33:05;2.70;88.10
42965;DHT22;28604;51.204;22.552;2022-12-29T04:35:32;2.70;88.00
42965;DHT22;28604;51.204;22.552;2022-12-29T04:37:58;2.70;88.00
42965;DHT22;28604;51.204;22.552;2022-12-29T04:40:24;2.70;87.90
42965;DHT22;28604;51.204;22.552;2022-12-29T04:42:50;2.70;88.00
42965;DHT22;28604;51.204;22.552;2022-12-29T04:45:17;2.80;87.90
42965;DHT22;28604;51.204;22.552;2022-12-29T04:47:51;2.70;87.70
42965;DHT22;28604;51.204;22.552;2022-12-29T04:50:28;2.80;87.60
42965;DHT22;28604;51.204;22.552;2022-12-29T04:53:13;2.80;87.70
42965;DHT22;28604;51.204;22.552;2022-12-29T04:55:39;2.70;87.60
42965;DHT22;28604;51.204;22.552;2022-12-29T04:58:06;2.80;87.40
42965;DHT22;28604;51.204;22.552;2022-12-29T05:00:33;2.80;87.60
42965;DHT22;28604;51.204;22.552;2022-12-29T05:03:00;2.80;87.60
42965;DHT22;28604;51.204;22.552;2022-12-29T05:05:27;2.80;87.70
42965;DHT22;28604;51.204;22.552;2022-12-29T05:07:53;2.80;87.70
42965;DHT22;28604;51.204;22.552;2022-12-29T05:10:19;2.80;87.60
42965;DHT22;28604;51.204;22.552;2022-12-29T05:12:47;2.80;87.30
42965;DHT22;28604;51.204;22.552;2022-12-29T05:15:14;2.80;87.50
42965;DHT22;28604;51.204;22.552;2022-12-29T05:21:05;2.90;87.20
42965;DHT22;28604;51.204;22.552;2022-12-29T05:23:31;2.90;87.20
42965;DHT22;28604;51.204;22.552;2022-12-29T05:26:04;2.90;87.30
42965;DHT22;28604;51.204;22.552;2022-12-29T05:28:40;2.90;87.20
42965;DHT22;28604;51.204;22.552;2022-12-29T05:31:12;2.90;87.30
42965;DHT22;28604;51.204;22.552;2022-12-29T05:33:39;3.00;87.00
42965;DHT22;28604;51.204;22.552;2022-12-29T05:36:06;3.00;86.90
42965;DHT22;28604;51.204;22.552;2022-12-29T05:38:34;3.00;87.00
42965;DHT22;28604;51.204;22.552;2022-12-29T05:41:00;3.00;87.70
42965;DHT22;28604;51.204;22.552;2022-12-29T05:43:49;3.00;88.20
42965;DHT22;28604;51.204;22.552;2022-12-29T05:46:29;3.10;88.90
42965;DHT22;28604;51.204;22.552;2022-12-29T05:49:04;3.00;89.00
42965;DHT22;28604;51.204;22.552;2022-12-29T05:55:00;3.00;89.40
42965;DHT22;28604;51.204;22.552;2022-12-29T05:57:28;2.90;89.90
42965;DHT22;28604;51.204;22.552;2022-12-29T06:00:05;2.90;90.00
42965;DHT22;28604;51.204;22.552;2022-12-29T06:02:40;2.90;89.90
42965;DHT22;28604;51.204;22.552;2022-12-29T06:05:07;2.90;89.70
42965;DHT22;28604;51.204;22.552;2022-12-29T06:07:34;2.90;89.60
42965;DHT22;28604;51.204;22.552;2022-12-29T06:10:01;2.90;90.20
42965;DHT22;28604;51.204;22.552;2022-12-29T06:12:30;2.90;89.30
42965;DHT22;28604;51.204;22.552;2022-12-29T06:14:56;2.90;90.10
42965;DHT22;28604;51.204;22.552;2022-12-29T06:17:22;2.90;89.40
42965;DHT22;28604;51.204;22.552;2022-12-29T06:19:51;2.80;89.30
42965;DHT22;28604;51.204;22.552;2022-12-29T06:22:17;2.80;89.00
42965;DHT22;28604;51.204;22.552;2022-12-29T06:24:43;2.90;89.00
42965;DHT22;28604;51.204;22.552;2022-12-29T06:27:09;2.90;89.80
42965;DHT22;28604;51.204;22.552;2022-12-29T06:29:37;2.90;88.80
42965;DHT22;28604;51.204;22.552;2022-12-29T06:32:05;2.90;89.30
42965;DHT22;28604;51.204;22.552;2022-12-29T06:34:33;2.80;88.80
42965;DHT22;28604;51.204;22.552;2022-12-29T06:36:58;2.90;88.60
42965;DHT22;28604;51.204;22.552;2022-12-29T06:39:25;3.00;88.90
42965;DHT22;28604;51.204;22.552;2022-12-29T06:42:02;2.90;88.60
42965;DHT22;28604;51.204;22.552;2022-12-29T06:44:55;2.90;88.60
42965;DHT22;28604;51.204;22.552;2022-12-29T06:47:24;2.90;88.40
42965;DHT22;28604;51.204;22.552;2022-12-29T06:49:50;2.80;88.30
42965;DHT22;28604;51.204;22.552;2022-12-29T06:52:16;2.90;88.50
42965;DHT22;28604;51.204;22.552;2022-12-29T06:54:42;2.90;88.40
42965;DHT22;28604;51.204;22.552;2022-12-29T06:57:08;2.90;88.10
42965;DHT22;28604;51.204;22.552;2022-12-29T06:59:34;2.90;88.20
42965;DHT22;28604;51.204;22.552;2022-12-29T07:01:59;2.90;88.20
42965;DHT22;28604;51.204;22.552;2022-12-29T07:04:27;2.90;87.30
42965;DHT22;28604;51.204;22.552;2022-12-29T07:06:53;2.90;88.10
42965;DHT22;28604;51.204;22.552;2022-12-29T07:09:19;2.90;88.10
42965;DHT22;28604;51.204;22.552;2022-12-29T07:11:45;2.90;87.70
42965;DHT22;28604;51.204;22.552;2022-12-29T07:14:11;3.00;87.60
42965;DHT22;28604;51.204;22.552;2022-12-29T07:16:37;2.90;87.80
42965;DHT22;28604;51.204;22.552;2022-12-29T07:19:03;3.00;87.90
42965;DHT22;28604;51.204;22.552;2022-12-29T07:21:29;3.00;87.80
42965;DHT22;28604;51.204;22.552;2022-12-29T07:23:55;3.00;87.50
42965;DHT22;28604;51.204;22.552;2022-12-29T07:26:21;3.00;87.30
42965;DHT22;28604;51.204;22.552;2022-12-29T07:28:47;3.00;87.50
42965;DHT22;28604;51.204;22.552;2022-12-29T07:31:14;3.10;86.90
42965;DHT22;28604;51.204;22.552;2022-12-29T07:33:42;3.10;86.90
42965;DHT22;28604;51.204;22.552;2022-12-29T07:36:09;3.10;87.20
42965;DHT22;28604;51.204;22.552;2022-12-29T07:38:35;3.10;86.70
42965;DHT22;28604;51.204;22.552;2022-12-29T07:41:00;3.20;86.70
42965;DHT22;28604;51.204;22.552;2022-12-29T07:43:27;3.20;87.00
42965;DHT22;28604;51.204;22.552;2022-12-29T07:46:13;3.20;86.70
42965;DHT22;28604;51.204;22.552;2022-12-29T07:48:39;3.20;86.70
42965;DHT22;28604;51.204;22.552;2022-12-29T07:51:05;3.30;85.80
42965;DHT22;28604;51.204;22.552;2022-12-29T07:53:32;3.30;85.80
42965;DHT22;28604;51.204;22.552;2022-12-29T07:55:58;3.30;86.40
42965;DHT22;28604;51.204;22.552;2022-12-29T07:58:24;3.30;86.10
42965;DHT22;28604;51.204;22.552;2022-12-29T08:00:53;3.40;85.80
42965;DHT22;28604;51.204;22.552;2022-12-29T08:03:20;3.50;85.60
42965;DHT22;28604;51.204;22.552;2022-12-29T08:05:46;3.60;86.00
42965;DHT22;28604;51.204;22.552;2022-12-29T08:08:12;3.80;85.00
42965;DHT22;28604;51.204;22.552;2022-12-29T08:10:37;3.90;85.10
42965;DHT22;28604;51.204;22.552;2022-12-29T08:13:03;3.90;85.00
42965;DHT22;28604;51.204;22.552;2022-12-29T08:15:29;4.00;84.40
42965;DHT22;28604;51.204;22.552;2022-12-29T08:17:55;4.00;83.50
42965;DHT22;28604;51.204;22.552;2022-12-29T08:20:21;4.00;83.70
42965;DHT22;28604;51.204;22.552;2022-12-29T08:22:47;4.00;83.70
42965;DHT22;28604;51.204;22.552;2022-12-29T08:25:13;4.00;83.70
42965;DHT22;28604;51.204;22.552;2022-12-29T08:27:39;4.00;83.50
42965;DHT22;28604;51.204;22.552;2022-12-29T08:30:05;4.00;82.50
42965;DHT22;28604;51.204;22.552;2022-12-29T08:32:31;4.00;83.00
42965;DHT22;28604;51.204;22.552;2022-12-29T08:34:57;4.00;82.90
42965;DHT22;28604;51.204;22.552;2022-12-29T08:37:23;4.00;82.20
42965;DHT22;28604;51.204;22.552;2022-12-29T08:39:49;4.00;82.70
42965;DHT22;28604;51.204;22.552;2022-12-29T08:42:15;4.00;81.80
42965;DHT22;28604;51.204;22.552;2022-12-29T08:44:41;4.10;83.20
42965;DHT22;28604;51.204;22.552;2022-12-29T08:47:08;4.10;83.30
42965;DHT22;28604;51.204;22.552;2022-12-29T08:49:34;4.10;83.20
42965;DHT22;28604;51.204;22.552;2022-12-29T08:52:00;4.10;82.90
42965;DHT22;28604;51.204;22.552;2022-12-29T08:54:26;4.20;82.60
42965;DHT22;28604;51.204;22.552;2022-12-29T08:56:52;4.20;82.70
42965;DHT22;28604;51.204;22.552;2022-12-29T08:59:20;4.20;83.20
42965;DHT22;28604;51.204;22.552;2022-12-29T09:01:47;4.20;82.20
42965;DHT22;28604;51.204;22.552;2022-12-29T09:04:13;4.20;82.50
42965;DHT22;28604;51.204;22.552;2022-12-29T09:06:39;4.30;82.50
42965;DHT22;28604;51.204;22.552;2022-12-29T09:09:05;4.30;82.40
42965;DHT22;28604;51.204;22.552;2022-12-29T09:11:31;4.30;82.90
42965;DHT22;28604;51.204;22.552;2022-12-29T09:13:56;4.40;82.70
42965;DHT22;28604;51.204;22.552;2022-12-29T09:16:23;4.40;83.80
42965;DHT22;28604;51.204;22.552;2022-12-29T09:18:49;4.50;81.60
42965;DHT22;28604;51.204;22.552;2022-12-29T09:21:15;4.50;82.30
42965;DHT22;28604;51.204;22.552;2022-12-29T09:23:40;4.60;82.60
42965;DHT22;28604;51.204;22.552;2022-12-29T09:26:07;4.60;82.10
42965;DHT22;28604;51.204;22.552;2022-12-29T09:28:33;4.70;82.80
42965;DHT22;28604;51.204;22.552;2022-12-29T09:30:59;4.80;81.20
42965;DHT22;28604;51.204;22.552;2022-12-29T09:33:25;4.80;81.70
42965;DHT22;28604;51.204;22.552;2022-12-29T09:35:53;4.90;81.70
42965;DHT22;28604;51.204;22.552;2022-12-29T09:38:19;5.00;81.30
42965;DHT22;28604;51.204;22.552;2022-12-29T09:40:49;5.10;81.50
42965;DHT22;28604;51.204;22.552;2022-12-29T09:43:32;5.20;83.90
42965;DHT22;28604;51.204;22.552;2022-12-29T09:46:46;5.30;81.30
42965;DHT22;28604;51.204;22.552;2022-12-29T09:51:37;5.50;80.20
42965;DHT22;28604;51.204;22.552;2022-12-29T09:54:05;5.50;81.00
42965;DHT22;28604;51.204;22.552;2022-12-29T09:56:40;5.60;80.70
42965;DHT22;28604;51.204;22.552;2022-12-29T09:59:14;5.60;80.00
42965;DHT22;28604;51.204;22.552;2022-12-29T10:02:03;5.60;80.70
42965;DHT22;28604;51.204;22.552;2022-12-29T10:04:30;5.70;80.30
42965;DHT22;28604;51.204;22.552;2022-12-29T10:06:57;5.80;81.40
42965;DHT22;28604;51.204;22.552;2022-12-29T10:19:52;5.70;79.70
42965;DHT22;28604;51.204;22.552;2022-12-29T10:24:45;5.70;79.80
42965;DHT22;28604;51.204;22.552;2022-12-29T10:27:12;5.80;80.90
42965;DHT22;28604;51.204;22.552;2022-12-29T10:29:46;5.80;80.20
42965;DHT22;28604;51.204;22.552;2022-12-29T10:34:59;5.70;78.50
42965;DHT22;28604;51.204;22.552;2022-12-29T10:38:01;5.70;79.60
42965;DHT22;28604;51.204;22.552;2022-12-29T10:42:46;5.80;79.60
42965;DHT22;28604;51.204;22.552;2022-12-29T10:45:13;5.80;81.30
42965;DHT22;28604;51.204;22.552;2022-12-29T10:47:49;5.90;80.70
42965;DHT22;28604;51.204;22.552;2022-12-29T10:50:17;5.90;80.20
42965;DHT22;28604;51.204;22.552;2022-12-29T10:52:43;5.90;80.60
42965;DHT22;28604;51.204;22.552;2022-12-29T10:55:12;6.00;79.50
42965;DHT22;28604;51.204;22.552;2022-12-29T10:57:43;6.10;79.20
42965;DHT22;28604;51.204;22.552;2022-12-29T11:00:14;6.10;79.70
42965;DHT22;28604;51.204;22.552;2022-12-29T11:02:59;6.20;78.50
42965;DHT22;28604;51.204;22.552;2022-12-29T11:07:57;6.20;79.60
42965;DHT22;28604;51.204;22.552;2022-12-29T11:10:42;6.30;79.70
42965;DHT22;28604;51.204;22.552;2022-12-29T11:15:43;6.30;79.30
42965;DHT22;28604;51.204;22.552;2022-12-29T11:20:44;6.40;79.50
42965;DHT22;28604;51.204;22.552;2022-12-29T11:23:24;6.50;77.90
42965;DHT22;28604;51.204;22.552;2022-12-29T11:29:16;6.70;78.80
42965;DHT22;28604;51.204;22.552;2022-12-29T11:31:42;6.80;78.40
42965;DHT22;28604;51.204;22.552;2022-12-29T11:34:08;6.90;77.00
42965;DHT22;28604;51.204;22.552;2022-12-29T11:36:34;7.00;78.50
42965;DHT22;28604;51.204;22.552;2022-12-29T11:39:01;7.10;79.70
42965;DHT22;28604;51.204;22.552;2022-12-29T11:41:28;7.20;78.60
42965;DHT22;28604;51.204;22.552;2022-12-29T11:43:56;7.30;78.10
42965;DHT22;28604;51.204;22.552;2022-12-29T11:46:28;7.30;79.50
42965;DHT22;28604;51.204;22.552;2022-12-29T11:48:55;7.40;78.50
42965;DHT22;28604;51.204;22.552;2022-12-29T11:51:28;7.40;78.90
42965;DHT22;28604;51.204;22.552;2022-12-29T11:53:56;7.50;77.40
42965;DHT22;28604;51.204;22.552;2022-12-29T11:56:34;7.60;77.70
42965;DHT22;28604;51.204;22.552;2022-12-29T12:00:02;7.60;76.50
42965;DHT22;28604;51.204;22.552;2022-12-29T12:01:56;7.70;77.60
42965;DHT22;28604;51.204;22.552;2022-12-29T12:04:25;7.80;77.60
42965;DHT22;28604;51.204;22.552;2022-12-29T12:09:37;7.80;76.20
42965;DHT22;28604;51.204;22.552;2022-12-29T12:12:05;7.80;76.60
42965;DHT22;28604;51.204;22.552;2022-12-29T12:14:35;7.90;76.60
42965;DHT22;28604;51.204;22.552;2022-12-29T12:17:25;7.90;75.90
42965;DHT22;28604;51.204;22.552;2022-12-29T12:20:10;7.90;76.60
42965;DHT22;28604;51.204;22.552;2022-12-29T12:22:51;7.80;77.00
42965;DHT22;28604;51.204;22.552;2022-12-29T12:25:23;7.80;75.90
42965;DHT22;28604;51.204;22.552;2022-12-29T12:27:52;7.80;76.90
42965;DHT22;28604;51.204;22.552;2022-12-29T12:30:23;7.80;76.20
42965;DHT22;28604;51.204;22.552;2022-12-29T12:35:16;7.70;76.00
42965;DHT22;28604;51.204;22.552;2022-12-29T12:38:02;7.70;75.90
42965;DHT22;28604;51.204;22.552;2022-12-29T12:40:39;7.60;75.50
42965;DHT22;28604;51.204;22.552;2022-12-29T12:51:14;7.50;76.60
42965;DHT22;28604;51.204;22.552;2022-12-29T12:58:51;7.50;77.70
42965;DHT22;28604;51.204;22.552;2022-12-29T13:01:30;7.50;76.70
42965;DHT22;28604;51.204;22.552;2022-12-29T13:06:42;7.50;77.40
42965;DHT22;28604;51.204;22.552;2022-12-29T13:09:29;7.50;76.80
42965;DHT22;28604;51.204;22.552;2022-12-29T13:19:27;7.50;77.70
42965;DHT22;28604;51.204;22.552;2022-12-29T13:22:08;7.50;77.00
42965;DHT22;28604;51.204;22.552;2022-12-29T13:29:54;7.50;77.40
42965;DHT22;28604;51.204;22.552;2022-12-29T13:37:31;7.50;77.10
42965;DHT22;28604;51.204;22.552;2022-12-29T13:40:03;7.40;77.20
42965;DHT22;28604;51.204;22.552;2022-12-29T13:42:35;7.40;76.30
42965;DHT22;28604;51.204;22.552;2022-12-29T13:45:02;7.40;76.80
42965;DHT22;28604;51.204;22.552;2022-12-29T13:47:32;7.30;76.30
42965;DHT22;28604;51.204;22.552;2022-12-29T13:50:00;7.20;76.60
42965;DHT22;28604;51.204;22.552;2022-12-29T13:52:42;7.10;76.80
42965;DHT22;28604;51.204;22.552;2022-12-29T14:00:20;7.10;76.80
42965;DHT22;28604;51.204;22.552;2022-12-29T14:07:48;6.90;78.30
42965;DHT22;28604;51.204;22.552;2022-12-29T14:13:02;6.90;78.20
42965;DHT22;28604;51.204;22.552;2022-12-29T14:15:28;6.90;78.40
42965;DHT22;28604;51.204;22.552;2022-12-29T14:20:57;6.80;78.40
42965;DHT22;28604;51.204;22.552;2022-12-29T14:23:43;6.70;78.60
42965;DHT22;28604;51.204;22.552;2022-12-29T14:26:11;6.70;78.90
42965;DHT22;28604;51.204;22.552;2022-12-29T14:28:47;6.70;78.40
42965;DHT22;28604;51.204;22.552;2022-12-29T14:33:40;6.50;78.70
42965;DHT22;28604;51.204;22.552;2022-12-29T14:36:18;6.50;78.90
42965;DHT22;28604;51.204;22.552;2022-12-29T14:38:45;6.50;79.10
42965;DHT22;28604;51.204;22.552;2022-12-29T14:41:44;6.40;78.90
42965;DHT22;28604;51.204;22.552;2022-12-29T14:44:25;6.40;79.40
42965;DHT22;28604;51.204;22.552;2022-12-29T14:49:20;6.20;79.30
42965;DHT22;28604;51.204;22.552;2022-12-29T14:51:47;6.20;79.90
42965;DHT22;28604;51.204;22.552;2022-12-29T14:54:34;6.20;79.80
42965;DHT22;28604;51.204;22.552;2022-12-29T14:57:06;6.10;79.60
42965;DHT22;28604;51.204;22.552;2022-12-29T14:59:33;6.10;79.90
42965;DHT22;28604;51.204;22.552;2022-12-29T15:02:01;6.10;80.20
42965;DHT22;28604;51.204;22.552;2022-12-29T15:04:32;6.10;79.90
42965;DHT22;28604;51.204;22.552;2022-12-29T15:06:58;6.00;80.20
42965;DHT22;28604;51.204;22.552;2022-12-29T15:09:44;6.00;80.60
42965;DHT22;28604;51.204;22.552;2022-12-29T15:12:22;6.00;80.40
42965;DHT22;28604;51.204;22.552;2022-12-29T15:17:31;5.90;80.60
42965;DHT22;28604;51.204;22.552;2022-12-29T15:19:59;5.80;80.60
42965;DHT22;28604;51.204;22.552;2022-12-29T15:22:25;5.80;80.80
42965;DHT22;28604;51.204;22.552;2022-12-29T15:24:52;5.80;80.90
42965;DHT22;28604;51.204;22.552;2022-12-29T15:27:20;5.70;80.80
42965;DHT22;28604;51.204;22.552;2022-12-29T15:29:47;5.80;81.00
42965;DHT22;28604;51.204;22.552;2022-12-29T15:34:43;5.70;81.40
42965;DHT22;28604;51.204;22.552;2022-12-29T15:37:09;5.70;81.20
42965;DHT22;28604;51.204;22.552;2022-12-29T15:39:35;5.70;81.40
42965;DHT22;28604;51.204;22.552;2022-12-29T15:44:46;5.60;81.80
42965;DHT22;28604;51.204;22.552;2022-12-29T15:47:25;5.60;81.80
42965;DHT22;28604;51.204;22.552;2022-12-29T15:49:52;5.60;81.90
42965;DHT22;28604;51.204;22.552;2022-12-29T15:52:20;5.60;81.90
42965;DHT22;28604;51.204;22.552;2022-12-29T15:54:46;5.70;82.00
42965;DHT22;28604;51.204;22.552;2022-12-29T15:57:24;5.70;82.00
42965;DHT22;28604;51.204;22.552;2022-12-29T15:59:50;5.50;82.00
42965;DHT22;28604;51.204;22.552;2022-12-29T16:02:16;5.60;82.20
42965;DHT22;28604;51.204;22.552;2022-12-29T16:04:43;5.60;82.30
42965;DHT22;28604;51.204;22.552;2022-12-29T16:07:21;5.60;82.10
42965;DHT22;28604;51.204;22.552;2022-12-29T16:09:53;5.60;82.40
42965;DHT22;28604;51.204;22.552;2022-12-29T16:12:24;5.60;82.40
42965;DHT22;28604;51.204;22.552;2022-12-29T16:14:54;5.60;82.10
42965;DHT22;28604;51.204;22.552;2022-12-29T16:17:23;5.60;82.40
42965;DHT22;28604;51.204;22.552;2022-12-29T16:19:53;5.60;82.60
42965;DHT22;28604;51.204;22.552;2022-12-29T16:22:26;5.60;82.10
42965;DHT22;28604;51.204;22.552;2022-12-29T16:25:38;5.60;82.40
42965;DHT22;28604;51.204;22.552;2022-12-29T16:27:42;5.60;82.00
42965;DHT22;28604;51.204;22.552;2022-12-29T16:32:48;5.60;82.20
42965;DHT22;28604;51.204;22.552;2022-12-29T16:37:43;5.60;82.00
42965;DHT22;28604;51.204;22.552;2022-12-29T16:40:23;5.60;82.30
42965;DHT22;28604;51.204;22.552;2022-12-29T16:42:54;5.70;82.30
42965;DHT22;28604;51.204;22.552;2022-12-29T16:47:47;5.70;82.20
42965;DHT22;28604;51.204;22.552;2022-12-29T16:50:17;5.70;82.10
42965;DHT22;28604;51.204;22.552;2022-12-29T16:52:47;5.70;82.20
42965;DHT22;28604;51.204;22.552;2022-12-29T16:55:15;5.70;82.70
42965;DHT22;28604;51.204;22.552;2022-12-29T16:57:41;5.70;82.00
42965;DHT22;28604;51.204;22.552;2022-12-29T17:00:17;5.70;82.10
42965;DHT22;28604;51.204;22.552;2022-12-29T17:02:43;5.60;82.40
42965;DHT22;28604;51.204;22.552;2022-12-29T17:05:13;5.60;82.40
42965;DHT22;28604;51.204;22.552;2022-12-29T17:07:39;5.60;82.40
42965;DHT22;28604;51.204;22.552;2022-12-29T17:10:05;5.60;82.30
42965;DHT22;28604;51.204;22.552;2022-12-29T17:12:31;5.60;82.30
42965;DHT22;28604;51.204;22.552;2022-12-29T17:15:05;5.50;82.60
42965;DHT22;28604;51.204;22.552;2022-12-29T17:17:39;5.50;82.60
42965;DHT22;28604;51.204;22.552;2022-12-29T17:20:25;5.50;82.50
42965;DHT22;28604;51.204;22.552;2022-12-29T17:22:51;5.50;82.80
42965;DHT22;28604;51.204;22.552;2022-12-29T17:25:20;5.50;82.60
42965;DHT22;28604;51.204;22.552;2022-12-29T17:27:50;5.50;82.70
42965;DHT22;28604;51.204;22.552;2022-12-29T17:30:18;5.40;82.60
42965;DHT22;28604;51.204;22.552;2022-12-29T17:32:46;5.40;82.60
42965;DHT22;28604;51.204;22.552;2022-12-29T17:35:15;5.40;82.80
42965;DHT22;28604;51.204;22.552;2022-12-29T17:37:41;5.40;82.90
42965;DHT22;28604;51.204;22.552;2022-12-29T17:40:09;5.40;82.90
42965;DHT22;28604;51.204;22.552;2022-12-29T17:42:37;5.30;83.00
42965;DHT22;28604;51.204;22.552;2022-12-29T17:45:05;5.40;83.10
42965;DHT22;28604;51.204;22.552;2022-12-29T17:47:31;5.30;83.30
42965;DHT22;28604;51.204;22.552;2022-12-29T17:49:57;5.30;83.20
42965;DHT22;28604;51.204;22.552;2022-12-29T17:52:23;5.30;83.30
42965;DHT22;28604;51.204;22.552;2022-12-29T17:54:50;5.20;83.60
42965;DHT22;28604;51.204;22.552;2022-12-29T17:57:16;5.20;83.60
42965;DHT22;28604;51.204;22.552;2022-12-29T17:59:42;5.20;83.60
42965;DHT22;28604;51.204;22.552;2022-12-29T18:02:20;5.20;83.70
42965;DHT22;28604;51.204;22.552;2022-12-29T18:04:48;5.20;83.80
42965;DHT22;28604;51.204;22.552;2022-12-29T18:07:13;5.10;83.80
42965;DHT22;28604;51.204;22.552;2022-12-29T18:09:53;5.20;83.90
42965;DHT22;28604;51.204;22.552;2022-12-29T18:12:25;5.10;84.10
42965;DHT22;28604;51.204;22.552;2022-12-29T18:14:51;5.10;84.20
42965;DHT22;28604;51.204;22.552;2022-12-29T18:17:17;5.10;84.00
42965;DHT22;28604;51.204;22.552;2022-12-29T18:19:43;5.20;84.10
42965;DHT22;28604;51.204;22.552;2022-12-29T18:22:09;5.10;84.00
42965;DHT22;28604;51.204;22.552;2022-12-29T18:24:35;5.20;84.10
42965;DHT22;28604;51.204;22.552;2022-12-29T18:27:12;5.20;84.20
42965;DHT22;28604;51.204;22.552;2022-12-29T18:29:38;5.20;84.30
42965;DHT22;28604;51.204;22.552;2022-12-29T18:32:05;5.20;84.40
42965;DHT22;28604;51.204;22.552;2022-12-29T18:34:32;5.20;84.30
42965;DHT22;28604;51.204;22.552;2022-12-29T18:36:58;5.20;84.40
42965;DHT22;28604;51.204;22.552;2022-12-29T18:39:26;5.20;84.30
42965;DHT22;28604;51.204;22.552;2022-12-29T18:41:52;5.20;84.20